Main page
METAR-TAF:

METAR-TAF

Airports :

Lossiemouth, Scotland

RAF Lossiemouth

latitude: 57-43N, longitude: 003-19W, elevation: 13 m

Current weather observation

The report was made 27 minutes ago, at 08:50 UTC
Wind 12 kt from the East
Temperature 7°C
Humidity 87%
Pressure 1015 hPa
Visibility 10 km or more
Few clouds at a height of 700 ft
Broken clouds at a height of 1100 ft

METAR: EGQS 290850Z 10012KT 9999 FEW007 BKN011 07/05 Q1015 GRN NOSIG

Time: 10:17 (09:17 UTC)

Forecast

The report was made 1 hour and 48 minutes ago, at 07:29 UTC
Forecast valid from 29 at 09 UTC to 30 at 03 UTC
Wind 10 kt from the East
Visibility 10 km or more
Broken clouds at a height of 1500 ft
Temporary
from 29 at 09 UTC to 30 at 03 UTC
Broken clouds at a height of 1000 ft
Temporary
from 29 at 22 UTC to 30 at 03 UTC
Wind 15 kt from the South/Southeast with gusts up to 25 kt

TAF: EGQS 290729Z 2909/3003 09010KT 9999 BKN015 TEMPO 2909/3003 BKN010 TEMPO 2922/3003 16015G25KT

Weather observations and forecasts of more than 4000 airports (METAR and TAF reports).

The available stations are represented by yellow and red dots on the map.

Hover mouse over dot to see the name of the station.

Then click to see weather observations and forecasts.

To change the map : click on the green buttons with a black cross to zoom in, on the green button with a dash to zoom out, or on the green arrows for adjacent maps.


METAR-TAF: